<?xml version="1.0" encoding="UTF-8" standalone="no" ?>
<gpx xmlns="http://www.topografix.com/GPX/1/1" xmlns:xsi="http://www.w3.org/2001/XMLSchema-instance" xsi:schemaLocation="http://www.topografix.com/GPX/1/1 http://www.topografix.com/GPX/1/1/gpx.xsd" version="1.1" creator="VisuGPX - https://www.visugpx.com">
  <metadata>
    <name>Norvège</name>
  </metadata>
  <trk>
    <name><![CDATA[Tour d'Europe: étape 044]]></name>
    <trkseg>
      <trkpt lat="64.47421" lon="11.57829">
        <ele>51.961343</ele>
        <time>2020-08-11T07:25:09.941Z</time>
      </trkpt>
      <trkpt lat="64.47296" lon="11.57402">
        <ele>46.005006</ele>
        <time>2020-08-11T07:26:09.951Z</time>
      </trkpt>
      <trkpt lat="64.47321" lon="11.56918">
        <ele>45.964824</ele>
        <time>2020-08-11T07:27:09.946Z</time>
      </trkpt>
      <trkpt lat="64.4738" lon="11.56564">
        <ele>47.242348</ele>
        <time>2020-08-11T07:28:18.937Z</time>
      </trkpt>
      <trkpt lat="64.47272" lon="11.56136">
        <ele>47.221966</ele>
        <time>2020-08-11T07:29:09.950Z</time>
      </trkpt>
      <trkpt lat="64.47179" lon="11.55676">
        <ele>49.039801</ele>
        <time>2020-08-11T07:29:58.965Z</time>
      </trkpt>
      <trkpt lat="64.47077" lon="11.55235">
        <ele>56.207492</ele>
        <time>2020-08-11T07:31:24.958Z</time>
      </trkpt>
      <trkpt lat="64.471" lon="11.54762">
        <ele>60.909528</ele>
        <time>2020-08-11T07:32:39.972Z</time>
      </trkpt>
      <trkpt lat="64.4704" lon="11.54272">
        <ele>63.6998</ele>
        <time>2020-08-11T07:33:40.942Z</time>
      </trkpt>
      <trkpt lat="64.47126" lon="11.53725">
        <ele>49.545652</ele>
        <time>2020-08-11T07:34:20.941Z</time>
      </trkpt>
      <trkpt lat="64.47168" lon="11.53196">
        <ele>42.288629</ele>
        <time>2020-08-11T07:35:02.983Z</time>
      </trkpt>
      <trkpt lat="64.47177" lon="11.52725">
        <ele>49.678932</ele>
        <time>2020-08-11T07:35:45.988Z</time>
      </trkpt>
      <trkpt lat="64.47085" lon="11.52351">
        <ele>61.200807</ele>
        <time>2020-08-11T07:37:22.967Z</time>
      </trkpt>
      <trkpt lat="64.46995" lon="11.5196">
        <ele>68.290934</ele>
        <time>2020-08-11T07:39:02.986Z</time>
      </trkpt>
      <trkpt lat="64.46913" lon="11.51444">
        <ele>61.321713</ele>
        <time>2020-08-11T07:39:58.942Z</time>
      </trkpt>
      <trkpt lat="64.46887" lon="11.50903">
        <ele>48.718213</ele>
        <time>2020-08-11T07:40:32.957Z</time>
      </trkpt>
      <trkpt lat="64.46877" lon="11.50383">
        <ele>47.577476</ele>
        <time>2020-08-11T07:41:28.003Z</time>
      </trkpt>
      <trkpt lat="64.46825" lon="11.49922">
        <ele>49.577187</ele>
        <time>2020-08-11T07:42:35.953Z</time>
      </trkpt>
      <trkpt lat="64.46793" lon="11.49418">
        <ele>54.249234</ele>
        <time>2020-08-11T07:43:47.982Z</time>
      </trkpt>
      <trkpt lat="64.4687" lon="11.4897">
        <ele>55.167815</ele>
        <time>2020-08-11T07:44:51.980Z</time>
      </trkpt>
      <trkpt lat="64.46955" lon="11.48553">
        <ele>53.807112</ele>
        <time>2020-08-11T07:45:40.949Z</time>
      </trkpt>
      <trkpt lat="64.46962" lon="11.48086">
        <ele>44.326087</ele>
        <time>2020-08-11T07:46:23.949Z</time>
      </trkpt>
      <trkpt lat="64.46991" lon="11.47588">
        <ele>55.201234</ele>
        <time>2020-08-11T07:47:38.957Z</time>
      </trkpt>
      <trkpt lat="64.47088" lon="11.47193">
        <ele>66.013202</ele>
        <time>2020-08-11T07:49:18.976Z</time>
      </trkpt>
      <trkpt lat="64.47207" lon="11.46847">
        <ele>71.999442</ele>
        <time>2020-08-11T07:50:58.944Z</time>
      </trkpt>
      <trkpt lat="64.47385" lon="11.46633">
        <ele>74.592007</ele>
        <time>2020-08-11T07:52:20.947Z</time>
      </trkpt>
      <trkpt lat="64.47608" lon="11.46737">
        <ele>78.877267</ele>
        <time>2020-08-11T07:53:38.945Z</time>
      </trkpt>
      <trkpt lat="64.47772" lon="11.46946">
        <ele>93.771417</ele>
        <time>2020-08-11T07:55:47.964Z</time>
      </trkpt>
      <trkpt lat="64.47949" lon="11.47141">
        <ele>99.887726</ele>
        <time>2020-08-11T07:57:40.985Z</time>
      </trkpt>
      <trkpt lat="64.48073" lon="11.47531">
        <ele>92.463882</ele>
        <time>2020-08-11T07:58:05.946Z</time>
      </trkpt>
      <trkpt lat="64.48253" lon="11.47824">
        <ele>78.612218</ele>
        <time>2020-08-11T07:58:26.964Z</time>
      </trkpt>
      <trkpt lat="64.48457" lon="11.47963">
        <ele>65.768185</ele>
        <time>2020-08-11T07:58:49.976Z</time>
      </trkpt>
      <trkpt lat="64.48684" lon="11.47827">
        <ele>56.451569</ele>
        <time>2020-08-11T07:59:22.968Z</time>
      </trkpt>
      <trkpt lat="64.48912" lon="11.47649">
        <ele>61.088358</ele>
        <time>2020-08-11T07:59:57.947Z</time>
      </trkpt>
      <trkpt lat="64.49034" lon="11.47277">
        <ele>73.226068</ele>
        <time>2020-08-11T08:01:54.950Z</time>
      </trkpt>
      <trkpt lat="64.4915" lon="11.46932">
        <ele>83.634528</ele>
        <time>2020-08-11T08:03:51.945Z</time>
      </trkpt>
      <trkpt lat="64.49385" lon="11.46952">
        <ele>79.199631</ele>
        <time>2020-08-11T08:04:21.971Z</time>
      </trkpt>
      <trkpt lat="64.49625" lon="11.46984">
        <ele>68.653223</ele>
        <time>2020-08-11T08:04:50.948Z</time>
      </trkpt>
      <trkpt lat="64.49845" lon="11.4701">
        <ele>76.925298</ele>
        <time>2020-08-11T08:06:06.947Z</time>
      </trkpt>
      <trkpt lat="64.50052" lon="11.47075">
        <ele>80.889943</ele>
        <time>2020-08-11T08:07:10.968Z</time>
      </trkpt>
      <trkpt lat="64.50246" lon="11.47152">
        <ele>88.944014</ele>
        <time>2020-08-11T08:08:51.939Z</time>
      </trkpt>
      <trkpt lat="64.50382" lon="11.47476">
        <ele>97.203467</ele>
        <time>2020-08-11T08:10:12.982Z</time>
      </trkpt>
      <trkpt lat="64.50473" lon="11.47908">
        <ele>112.518463</ele>
        <time>2020-08-11T08:11:16.985Z</time>
      </trkpt>
      <trkpt lat="64.50572" lon="11.48348">
        <ele>101.426365</ele>
        <time>2020-08-11T08:12:11.985Z</time>
      </trkpt>
      <trkpt lat="64.50772" lon="11.48713">
        <ele>87.505415</ele>
        <time>2020-08-11T08:12:48.967Z</time>
      </trkpt>
      <trkpt lat="64.50987" lon="11.48765">
        <ele>79.476941</ele>
        <time>2020-08-11T08:13:12.988Z</time>
      </trkpt>
      <trkpt lat="64.51238" lon="11.48531">
        <ele>66.492492</ele>
        <time>2020-08-11T08:13:41.965Z</time>
      </trkpt>
      <trkpt lat="64.51445" lon="11.48608">
        <ele>56.120495</ele>
        <time>2020-08-11T08:14:01.972Z</time>
      </trkpt>
      <trkpt lat="64.51605" lon="11.49034">
        <ele>54.553336</ele>
        <time>2020-08-11T08:14:49.987Z</time>
      </trkpt>
      <trkpt lat="64.51658" lon="11.49532">
        <ele>47.818397</ele>
        <time>2020-08-11T08:15:25.983Z</time>
      </trkpt>
      <trkpt lat="64.51633" lon="11.50027">
        <ele>53.610865</ele>
        <time>2020-08-11T08:17:04.947Z</time>
      </trkpt>
      <trkpt lat="64.51503" lon="11.50459">
        <ele>49.121251</ele>
        <time>2020-08-11T08:17:47.978Z</time>
      </trkpt>
      <trkpt lat="64.51349" lon="11.50832">
        <ele>52.537204</ele>
        <time>2020-08-11T08:18:43.981Z</time>
      </trkpt>
      <trkpt lat="64.51318" lon="11.51307">
        <ele>46.960782</ele>
        <time>2020-08-11T08:19:34.969Z</time>
      </trkpt>
      <trkpt lat="64.51439" lon="11.51777">
        <ele>45.32497</ele>
        <time>2020-08-11T08:20:29.957Z</time>
      </trkpt>
      <trkpt lat="64.51612" lon="11.52022">
        <ele>45.318087</ele>
        <time>2020-08-11T08:21:17.994Z</time>
      </trkpt>
      <trkpt lat="64.51742" lon="11.52397">
        <ele>48.63322</ele>
        <time>2020-08-11T08:22:26.963Z</time>
      </trkpt>
      <trkpt lat="64.51724" lon="11.52883">
        <ele>52.421498</ele>
        <time>2020-08-11T08:23:13.988Z</time>
      </trkpt>
      <trkpt lat="64.51715" lon="11.53371">
        <ele>52.727866</ele>
        <time>2020-08-11T08:24:06.962Z</time>
      </trkpt>
      <trkpt lat="64.51807" lon="11.53813">
        <ele>47.879013</ele>
        <time>2020-08-11T08:24:52.991Z</time>
      </trkpt>
      <trkpt lat="64.51991" lon="11.5372">
        <ele>47.545298</ele>
        <time>2020-08-11T08:25:35.976Z</time>
      </trkpt>
      <trkpt lat="64.52184" lon="11.53693">
        <ele>51.435259</ele>
        <time>2020-08-11T08:26:30.959Z</time>
      </trkpt>
      <trkpt lat="64.52363" lon="11.53923">
        <ele>50.881765</ele>
        <time>2020-08-11T08:27:15.980Z</time>
      </trkpt>
      <trkpt lat="64.52562" lon="11.53829">
        <ele>51.447865</ele>
        <time>2020-08-11T08:28:11.983Z</time>
      </trkpt>
      <trkpt lat="64.52773" lon="11.53922">
        <ele>50.061097</ele>
        <time>2020-08-11T08:28:55.006Z</time>
      </trkpt>
      <trkpt lat="64.52984" lon="11.54043">
        <ele>49.708345</ele>
        <time>2020-08-11T08:29:47.964Z</time>
      </trkpt>
      <trkpt lat="64.5303" lon="11.54039">
        <ele>53.413935</ele>
        <time>2020-08-11T08:33:10.958Z</time>
      </trkpt>
      <trkpt lat="64.53224" lon="11.54024">
        <ele>77.175732</ele>
        <time>2020-08-11T08:35:17.985Z</time>
      </trkpt>
      <trkpt lat="64.53418" lon="11.54005">
        <ele>93.514363</ele>
        <time>2020-08-11T08:37:30.950Z</time>
      </trkpt>
      <trkpt lat="64.53604" lon="11.54163">
        <ele>96.746462</ele>
        <time>2020-08-11T08:39:10.975Z</time>
      </trkpt>
      <trkpt lat="64.53845" lon="11.54083">
        <ele>84.607699</ele>
        <time>2020-08-11T08:39:43.958Z</time>
      </trkpt>
      <trkpt lat="64.54055" lon="11.54035">
        <ele>69.067503</ele>
        <time>2020-08-11T08:40:03.956Z</time>
      </trkpt>
      <trkpt lat="64.54263" lon="11.5388">
        <ele>57.981658</ele>
        <time>2020-08-11T08:40:23.953Z</time>
      </trkpt>
      <trkpt lat="64.5451" lon="11.53914">
        <ele>43.012882</ele>
        <time>2020-08-11T08:40:43.951Z</time>
      </trkpt>
      <trkpt lat="64.54757" lon="11.53732">
        <ele>41.599273</ele>
        <time>2020-08-11T08:41:25.999Z</time>
      </trkpt>
      <trkpt lat="64.54872" lon="11.53327">
        <ele>45.666033</ele>
        <time>2020-08-11T08:42:06.003Z</time>
      </trkpt>
      <trkpt lat="64.54983" lon="11.52944">
        <ele>49.72452</ele>
        <time>2020-08-11T08:42:47.960Z</time>
      </trkpt>
      <trkpt lat="64.55191" lon="11.52674">
        <ele>51.426915</ele>
        <time>2020-08-11T08:43:46.949Z</time>
      </trkpt>
      <trkpt lat="64.5541" lon="11.52642">
        <ele>50.375632</ele>
        <time>2020-08-11T08:44:42.969Z</time>
      </trkpt>
      <trkpt lat="64.55575" lon="11.52379">
        <ele>57.311761</ele>
        <time>2020-08-11T08:45:56.969Z</time>
      </trkpt>
      <trkpt lat="64.5572" lon="11.52039">
        <ele>51.967169</ele>
        <time>2020-08-11T08:46:37.967Z</time>
      </trkpt>
      <trkpt lat="64.55908" lon="11.51839">
        <ele>60.102703</ele>
        <time>2020-08-11T08:47:38.955Z</time>
      </trkpt>
      <trkpt lat="64.56016" lon="11.51366">
        <ele>62.835781</ele>
        <time>2020-08-11T08:48:41.023Z</time>
      </trkpt>
      <trkpt lat="64.56096" lon="11.50904">
        <ele>57.136921</ele>
        <time>2020-08-11T08:49:20.990Z</time>
      </trkpt>
      <trkpt lat="64.56153" lon="11.50519">
        <ele>54.589673</ele>
        <time>2020-08-11T08:50:20.964Z</time>
      </trkpt>
      <trkpt lat="64.56253" lon="11.50135">
        <ele>65.271024</ele>
        <time>2020-08-11T08:51:53.970Z</time>
      </trkpt>
      <trkpt lat="64.5613" lon="11.4973">
        <ele>56.111823</ele>
        <time>2020-08-11T08:52:53.947Z</time>
      </trkpt>
      <trkpt lat="64.55915" lon="11.49493">
        <ele>53.422478</ele>
        <time>2020-08-11T08:53:47.975Z</time>
      </trkpt>
      <trkpt lat="64.55713" lon="11.49259">
        <ele>56.647181</ele>
        <time>2020-08-11T08:54:35.955Z</time>
      </trkpt>
      <trkpt lat="64.55528" lon="11.49002">
        <ele>58.176111</ele>
        <time>2020-08-11T08:55:43.021Z</time>
      </trkpt>
      <trkpt lat="64.55435" lon="11.48587">
        <ele>61.348316</ele>
        <time>2020-08-11T08:56:27.962Z</time>
      </trkpt>
      <trkpt lat="64.55342" lon="11.4818">
        <ele>74.349935</ele>
        <time>2020-08-11T08:57:45.959Z</time>
      </trkpt>
      <trkpt lat="64.55125" lon="11.47968">
        <ele>68.596951</ele>
        <time>2020-08-11T08:58:32.951Z</time>
      </trkpt>
      <trkpt lat="64.5502" lon="11.47518">
        <ele>60.360652</ele>
        <time>2020-08-11T08:59:34.945Z</time>
      </trkpt>
      <trkpt lat="64.55017" lon="11.47075">
        <ele>78.774683</ele>
        <time>2020-08-11T09:01:43.950Z</time>
      </trkpt>
      <trkpt lat="64.54986" lon="11.46568">
        <ele>72.357978</ele>
        <time>2020-08-11T09:02:31.020Z</time>
      </trkpt>
      <trkpt lat="64.55085" lon="11.46143">
        <ele>74.439222</ele>
        <time>2020-08-11T09:03:27.983Z</time>
      </trkpt>
      <trkpt lat="64.55273" lon="11.4603">
        <ele>90.057011</ele>
        <time>2020-08-11T09:05:18.959Z</time>
      </trkpt>
      <trkpt lat="64.55457" lon="11.46159">
        <ele>102.029655</ele>
        <time>2020-08-11T09:07:15.948Z</time>
      </trkpt>
      <trkpt lat="64.55645" lon="11.46081">
        <ele>117.119683</ele>
        <time>2020-08-11T09:09:22.952Z</time>
      </trkpt>
      <trkpt lat="64.5584" lon="11.46065">
        <ele>131.814683</ele>
        <time>2020-08-11T09:11:31.949Z</time>
      </trkpt>
      <trkpt lat="64.56044" lon="11.45972">
        <ele>137.970719</ele>
        <time>2020-08-11T09:12:56.998Z</time>
      </trkpt>
      <trkpt lat="64.5625" lon="11.45976">
        <ele>138.794174</ele>
        <time>2020-08-11T09:14:14.979Z</time>
      </trkpt>
      <trkpt lat="64.5646" lon="11.4601">
        <ele>135.348553</ele>
        <time>2020-08-11T09:15:27.984Z</time>
      </trkpt>
      <trkpt lat="64.56689" lon="11.4604">
        <ele>126.183631</ele>
        <time>2020-08-11T09:15:52.958Z</time>
      </trkpt>
      <trkpt lat="64.5692" lon="11.46046">
        <ele>118.987859</ele>
        <time>2020-08-11T09:16:17.964Z</time>
      </trkpt>
      <trkpt lat="64.57186" lon="11.46058">
        <ele>109.998694</ele>
        <time>2020-08-11T09:16:53.983Z</time>
      </trkpt>
      <trkpt lat="64.57389" lon="11.46108">
        <ele>100.140982</ele>
        <time>2020-08-11T09:17:13.961Z</time>
      </trkpt>
      <trkpt lat="64.57639" lon="11.46308">
        <ele>92.22116</ele>
        <time>2020-08-11T09:17:45.959Z</time>
      </trkpt>
      <trkpt lat="64.57884" lon="11.46337">
        <ele>94.786734</ele>
        <time>2020-08-11T09:18:37.978Z</time>
      </trkpt>
      <trkpt lat="64.58088" lon="11.46392">
        <ele>95.334444</ele>
        <time>2020-08-11T09:19:20.971Z</time>
      </trkpt>
      <trkpt lat="64.58301" lon="11.46504">
        <ele>89.81033</ele>
        <time>2020-08-11T09:19:56.971Z</time>
      </trkpt>
      <trkpt lat="64.5854" lon="11.46531">
        <ele>75.551965</ele>
        <time>2020-08-11T09:20:17.001Z</time>
      </trkpt>
      <trkpt lat="64.58793" lon="11.46462">
        <ele>67.057555</ele>
        <time>2020-08-11T09:20:46.979Z</time>
      </trkpt>
      <trkpt lat="64.59064" lon="11.46093">
        <ele>60.943488</ele>
        <time>2020-08-11T09:21:25.977Z</time>
      </trkpt>
      <trkpt lat="64.59189" lon="11.45645">
        <ele>66.139472</ele>
        <time>2020-08-11T09:22:20.970Z</time>
      </trkpt>
      <trkpt lat="64.59305" lon="11.4526">
        <ele>67.93908</ele>
        <time>2020-08-11T09:23:18.964Z</time>
      </trkpt>
      <trkpt lat="64.59247" lon="11.44721">
        <ele>55.705329</ele>
        <time>2020-08-11T09:23:49.961Z</time>
      </trkpt>
      <trkpt lat="64.59356" lon="11.44288">
        <ele>51.981247</ele>
        <time>2020-08-11T09:38:22.958Z</time>
      </trkpt>
      <trkpt lat="64.59495" lon="11.43923">
        <ele>54.974711</ele>
        <time>2020-08-11T09:39:59.027Z</time>
      </trkpt>
      <trkpt lat="64.59689" lon="11.43795">
        <ele>58.585062</ele>
        <time>2020-08-11T09:41:08.984Z</time>
      </trkpt>
      <trkpt lat="64.59902" lon="11.43658">
        <ele>59.166253</ele>
        <time>2020-08-11T09:42:13.959Z</time>
      </trkpt>
      <trkpt lat="64.60121" lon="11.43596">
        <ele>58.317303</ele>
        <time>2020-08-11T09:43:13.000Z</time>
      </trkpt>
      <trkpt lat="64.60288" lon="11.4332">
        <ele>60.084458</ele>
        <time>2020-08-11T09:44:02.968Z</time>
      </trkpt>
      <trkpt lat="64.60403" lon="11.42963">
        <ele>73.088044</ele>
        <time>2020-08-11T09:46:03.973Z</time>
      </trkpt>
      <trkpt lat="64.60527" lon="11.42523">
        <ele>77.751257</ele>
        <time>2020-08-11T09:47:33.981Z</time>
      </trkpt>
      <trkpt lat="64.60729" lon="11.42471">
        <ele>81.443961</ele>
        <time>2020-08-11T09:48:34.993Z</time>
      </trkpt>
      <trkpt lat="64.60932" lon="11.4248">
        <ele>76.379252</ele>
        <time>2020-08-11T09:49:25.958Z</time>
      </trkpt>
      <trkpt lat="64.61113" lon="11.42785">
        <ele>63.198887</ele>
        <time>2020-08-11T09:50:12.975Z</time>
      </trkpt>
      <trkpt lat="64.61328" lon="11.4286">
        <ele>50.265967</ele>
        <time>2020-08-11T09:50:36.946Z</time>
      </trkpt>
      <trkpt lat="64.6158" lon="11.42781">
        <ele>51.682932</ele>
        <time>2020-08-11T09:51:17.949Z</time>
      </trkpt>
      <trkpt lat="64.61773" lon="11.42879">
        <ele>66.284087</ele>
        <time>2020-08-11T09:53:04.017Z</time>
      </trkpt>
      <trkpt lat="64.61959" lon="11.42977">
        <ele>86.528283</ele>
        <time>2020-08-11T09:55:22.980Z</time>
      </trkpt>
      <trkpt lat="64.62091" lon="11.43352">
        <ele>92.23687</ele>
        <time>2020-08-11T09:57:36.983Z</time>
      </trkpt>
      <trkpt lat="64.62039" lon="11.43739">
        <ele>108.75045</ele>
        <time>2020-08-11T09:59:29.959Z</time>
      </trkpt>
      <trkpt lat="64.61879" lon="11.44006">
        <ele>124.541511</ele>
        <time>2020-08-11T10:01:24.984Z</time>
      </trkpt>
      <trkpt lat="64.61804" lon="11.44446">
        <ele>123.874501</ele>
        <time>2020-08-11T10:02:56.005Z</time>
      </trkpt>
      <trkpt lat="64.61727" lon="11.44927">
        <ele>125.875508</ele>
        <time>2020-08-11T10:04:20.011Z</time>
      </trkpt>
      <trkpt lat="64.61566" lon="11.45232">
        <ele>128.969011</ele>
        <time>2020-08-11T10:05:39.959Z</time>
      </trkpt>
      <trkpt lat="64.61644" lon="11.45622">
        <ele>132.12641</ele>
        <time>2020-08-11T10:06:44.970Z</time>
      </trkpt>
      <trkpt lat="64.61782" lon="11.45967">
        <ele>138.057142</ele>
        <time>2020-08-11T10:07:50.960Z</time>
      </trkpt>
      <trkpt lat="64.61878" lon="11.46379">
        <ele>150.465724</ele>
        <time>2020-08-11T10:10:09.969Z</time>
      </trkpt>
      <trkpt lat="64.62066" lon="11.46508">
        <ele>157.439814</ele>
        <time>2020-08-11T10:11:37.967Z</time>
      </trkpt>
      <trkpt lat="64.62277" lon="11.46493">
        <ele>156.915007</ele>
        <time>2020-08-11T10:12:36.010Z</time>
      </trkpt>
      <trkpt lat="64.6253" lon="11.46394">
        <ele>150.942747</ele>
        <time>2020-08-11T10:13:16.043Z</time>
      </trkpt>
      <trkpt lat="64.62824" lon="11.46239">
        <ele>143.82294</ele>
        <time>2020-08-11T10:13:56.091Z</time>
      </trkpt>
      <trkpt lat="64.63015" lon="11.45982">
        <ele>139.947136</ele>
        <time>2020-08-11T10:14:48.022Z</time>
      </trkpt>
      <trkpt lat="64.63194" lon="11.45643">
        <ele>131.414366</ele>
        <time>2020-08-11T10:15:09.012Z</time>
      </trkpt>
      <trkpt lat="64.63409" lon="11.45381">
        <ele>128.930631</ele>
        <time>2020-08-11T10:15:52.080Z</time>
      </trkpt>
      <trkpt lat="64.63619" lon="11.45109">
        <ele>133.581641</ele>
        <time>2020-08-11T10:16:48.033Z</time>
      </trkpt>
      <trkpt lat="64.63775" lon="11.44851">
        <ele>148.548074</ele>
        <time>2020-08-11T10:19:08.031Z</time>
      </trkpt>
      <trkpt lat="64.63968" lon="11.44845">
        <ele>166.235645</ele>
        <time>2020-08-11T10:21:48.046Z</time>
      </trkpt>
      <trkpt lat="64.64157" lon="11.44769">
        <ele>176.486788</ele>
        <time>2020-08-11T10:23:59.023Z</time>
      </trkpt>
      <trkpt lat="64.64379" lon="11.44826">
        <ele>174.838872</ele>
        <time>2020-08-11T10:25:17.531Z</time>
      </trkpt>
      <trkpt lat="64.64602" lon="11.44745">
        <ele>181.107534</ele>
        <time>2020-08-11T10:26:34.552Z</time>
      </trkpt>
      <trkpt lat="64.64799" lon="11.44659">
        <ele>191.110983</ele>
        <time>2020-08-11T10:28:13.504Z</time>
      </trkpt>
      <trkpt lat="64.64985" lon="11.44518">
        <ele>202.996831</ele>
        <time>2020-08-11T10:30:13.514Z</time>
      </trkpt>
      <trkpt lat="64.65192" lon="11.44552">
        <ele>209.464373</ele>
        <time>2020-08-11T10:32:08.536Z</time>
      </trkpt>
      <trkpt lat="64.65401" lon="11.4458">
        <ele>208.398652</ele>
        <time>2020-08-11T10:33:26.581Z</time>
      </trkpt>
      <trkpt lat="64.65596" lon="11.4473">
        <ele>211.33872</ele>
        <time>2020-08-11T10:34:26.519Z</time>
      </trkpt>
      <trkpt lat="64.65829" lon="11.44861">
        <ele>208.172653</ele>
        <time>2020-08-11T10:35:14.529Z</time>
      </trkpt>
      <trkpt lat="64.66062" lon="11.44809">
        <ele>203.622534</ele>
        <time>2020-08-11T10:35:37.513Z</time>
      </trkpt>
      <trkpt lat="64.66277" lon="11.44653">
        <ele>202.507435</ele>
        <time>2020-08-11T10:36:25.522Z</time>
      </trkpt>
      <trkpt lat="64.66525" lon="11.44484">
        <ele>184.933647</ele>
        <time>2020-08-11T10:36:59.512Z</time>
      </trkpt>
      <trkpt lat="64.66742" lon="11.44382">
        <ele>165.725565</ele>
        <time>2020-08-11T10:37:19.569Z</time>
      </trkpt>
      <trkpt lat="64.66994" lon="11.44332">
        <ele>144.046931</ele>
        <time>2020-08-11T10:37:40.518Z</time>
      </trkpt>
      <trkpt lat="64.67168" lon="11.44">
        <ele>123.754232</ele>
        <time>2020-08-11T10:38:00.526Z</time>
      </trkpt>
      <trkpt lat="64.67309" lon="11.43477">
        <ele>100.411457</ele>
        <time>2020-08-11T10:38:20.508Z</time>
      </trkpt>
      <trkpt lat="64.67548" lon="11.43442">
        <ele>88.357977</ele>
        <time>2020-08-11T10:38:40.511Z</time>
      </trkpt>
      <trkpt lat="64.6779" lon="11.43722">
        <ele>85.279783</ele>
        <time>2020-08-11T10:39:13.522Z</time>
      </trkpt>
      <trkpt lat="64.68" lon="11.43503">
        <ele>85.75015</ele>
        <time>2020-08-11T10:39:53.501Z</time>
      </trkpt>
      <trkpt lat="64.68228" lon="11.43288">
        <ele>81.760105</ele>
        <time>2020-08-11T10:40:33.525Z</time>
      </trkpt>
      <trkpt lat="64.68482" lon="11.43301">
        <ele>66.502625</ele>
        <time>2020-08-11T10:41:11.510Z</time>
      </trkpt>
      <trkpt lat="64.68687" lon="11.43235">
        <ele>51.907117</ele>
        <time>2020-08-11T10:41:32.519Z</time>
      </trkpt>
      <trkpt lat="64.68847" lon="11.43643">
        <ele>50.630704</ele>
        <time>2020-08-11T10:42:19.506Z</time>
      </trkpt>
      <trkpt lat="64.69012" lon="11.43872">
        <ele>54.708701</ele>
        <time>2020-08-11T10:43:19.548Z</time>
      </trkpt>
      <trkpt lat="64.69157" lon="11.44162">
        <ele>60.117841</ele>
        <time>2020-08-11T10:44:19.561Z</time>
      </trkpt>
      <trkpt lat="64.69271" lon="11.44551">
        <ele>64.163262</ele>
        <time>2020-08-11T10:45:22.542Z</time>
      </trkpt>
      <trkpt lat="64.69424" lon="11.44931">
        <ele>69.696339</ele>
        <time>2020-08-11T10:46:22.514Z</time>
      </trkpt>
      <trkpt lat="64.69602" lon="11.45256">
        <ele>67.264124</ele>
        <time>2020-08-11T10:47:16.500Z</time>
      </trkpt>
      <trkpt lat="64.69805" lon="11.44997">
        <ele>58.751085</ele>
        <time>2020-08-11T10:47:56.537Z</time>
      </trkpt>
      <trkpt lat="64.70032" lon="11.44839">
        <ele>57.982247</ele>
        <time>2020-08-11T10:48:49.520Z</time>
      </trkpt>
      <trkpt lat="64.70145" lon="11.44448">
        <ele>63.541054</ele>
        <time>2020-08-11T10:50:21.562Z</time>
      </trkpt>
      <trkpt lat="64.70306" lon="11.44199">
        <ele>72.246449</ele>
        <time>2020-08-11T10:52:25.513Z</time>
      </trkpt>
      <trkpt lat="64.7048" lon="11.44255">
        <ele>78.930673</ele>
        <time>2020-08-11T10:53:53.538Z</time>
      </trkpt>
      <trkpt lat="64.7059" lon="11.44778">
        <ele>78.362798</ele>
        <time>2020-08-11T10:54:59.510Z</time>
      </trkpt>
      <trkpt lat="64.70661" lon="11.45253">
        <ele>88.336631</ele>
        <time>2020-08-11T10:56:13.503Z</time>
      </trkpt>
      <trkpt lat="64.70745" lon="11.45686">
        <ele>100.852599</ele>
        <time>2020-08-11T10:57:45.510Z</time>
      </trkpt>
      <trkpt lat="64.7088" lon="11.46102">
        <ele>98.985208</ele>
        <time>2020-08-11T10:58:44.514Z</time>
      </trkpt>
      <trkpt lat="64.71132" lon="11.46454">
        <ele>86.761815</ele>
        <time>2020-08-11T10:59:26.553Z</time>
      </trkpt>
      <trkpt lat="64.71282" lon="11.46835">
        <ele>92.611726</ele>
        <time>2020-08-11T11:00:29.523Z</time>
      </trkpt>
      <trkpt lat="64.71432" lon="11.47143">
        <ele>103.11826</ele>
        <time>2020-08-11T11:01:59.503Z</time>
      </trkpt>
      <trkpt lat="64.71619" lon="11.47364">
        <ele>98.29577</ele>
        <time>2020-08-11T11:02:59.514Z</time>
      </trkpt>
      <trkpt lat="64.71841" lon="11.47649">
        <ele>87.178967</ele>
        <time>2020-08-11T11:03:27.519Z</time>
      </trkpt>
      <trkpt lat="64.71988" lon="11.48064">
        <ele>75.163448</ele>
        <time>2020-08-11T11:03:47.506Z</time>
      </trkpt>
      <trkpt lat="64.72107" lon="11.48461">
        <ele>62.45714</ele>
        <time>2020-08-11T11:04:07.505Z</time>
      </trkpt>
      <trkpt lat="64.72176" lon="11.48922">
        <ele>54.004528</ele>
        <time>2020-08-11T11:04:27.520Z</time>
      </trkpt>
      <trkpt lat="64.72243" lon="11.49435">
        <ele>65.911628</ele>
        <time>2020-08-11T11:05:43.513Z</time>
      </trkpt>
      <trkpt lat="64.72355" lon="11.49933">
        <ele>65.908815</ele>
        <time>2020-08-11T11:06:30.512Z</time>
      </trkpt>
      <trkpt lat="64.72456" lon="11.5037">
        <ele>61.35351</ele>
        <time>2020-08-11T11:07:10.506Z</time>
      </trkpt>
      <trkpt lat="64.72581" lon="11.50875">
        <ele>59.53105</ele>
        <time>2020-08-11T11:08:00.517Z</time>
      </trkpt>
      <trkpt lat="64.7271" lon="11.51298">
        <ele>67.94691</ele>
        <time>2020-08-11T11:09:12.527Z</time>
      </trkpt>
      <trkpt lat="64.72796" lon="11.51764">
        <ele>62.795377</ele>
        <time>2020-08-11T11:10:07.522Z</time>
      </trkpt>
      <trkpt lat="64.72955" lon="11.52243">
        <ele>55.431789</ele>
        <time>2020-08-11T11:10:47.539Z</time>
      </trkpt>
      <trkpt lat="64.73127" lon="11.52524">
        <ele>55.983664</ele>
        <time>2020-08-11T11:11:51.522Z</time>
      </trkpt>
      <trkpt lat="64.73336" lon="11.52449">
        <ele>58.779926</ele>
        <time>2020-08-11T11:13:00.513Z</time>
      </trkpt>
      <trkpt lat="64.73526" lon="11.52555">
        <ele>66.485398</ele>
        <time>2020-08-11T11:14:14.508Z</time>
      </trkpt>
      <trkpt lat="64.73654" lon="11.52896">
        <ele>80.330873</ele>
        <time>2020-08-11T11:15:50.514Z</time>
      </trkpt>
      <trkpt lat="64.73755" lon="11.53283">
        <ele>88.014444</ele>
        <time>2020-08-11T11:17:44.559Z</time>
      </trkpt>
      <trkpt lat="64.73902" lon="11.53749">
        <ele>79.59368</ele>
        <time>2020-08-11T11:18:20.544Z</time>
      </trkpt>
      <trkpt lat="64.74074" lon="11.54095">
        <ele>66.248563</ele>
        <time>2020-08-11T11:18:40.513Z</time>
      </trkpt>
      <trkpt lat="64.74304" lon="11.54245">
        <ele>60.340432</ele>
        <time>2020-08-11T11:19:03.504Z</time>
      </trkpt>
      <trkpt lat="64.7451" lon="11.54258">
        <ele>63.708042</ele>
        <time>2020-08-11T11:20:13.523Z</time>
      </trkpt>
      <trkpt lat="64.74756" lon="11.54257">
        <ele>64.099</ele>
        <time>2020-08-11T11:21:11.507Z</time>
      </trkpt>
      <trkpt lat="64.74944" lon="11.5438">
        <ele>79.377076</ele>
        <time>2020-08-11T11:23:21.508Z</time>
      </trkpt>
      <trkpt lat="64.75141" lon="11.54552">
        <ele>86.77291</ele>
        <time>2020-08-11T11:24:46.520Z</time>
      </trkpt>
      <trkpt lat="64.75287" lon="11.54924">
        <ele>80.131449</ele>
        <time>2020-08-11T11:25:46.525Z</time>
      </trkpt>
      <trkpt lat="64.75155" lon="11.55412">
        <ele>64.938173</ele>
        <time>2020-08-11T11:26:18.511Z</time>
      </trkpt>
      <trkpt lat="64.75033" lon="11.55898">
        <ele>47.331517</ele>
        <time>2020-08-11T11:26:38.505Z</time>
      </trkpt>
      <trkpt lat="64.74905" lon="11.56302">
        <ele>41.405041</ele>
        <time>2020-08-11T11:27:02.509Z</time>
      </trkpt>
      <trkpt lat="64.74994" lon="11.56768">
        <ele>47.872298</ele>
        <time>2020-08-11T11:27:58.525Z</time>
      </trkpt>
      <trkpt lat="64.75169" lon="11.57054">
        <ele>50.892908</ele>
        <time>2020-08-11T11:28:46.568Z</time>
      </trkpt>
      <trkpt lat="64.75331" lon="11.5733">
        <ele>54.043311</ele>
        <time>2020-08-11T11:30:17.514Z</time>
      </trkpt>
      <trkpt lat="64.75521" lon="11.57783">
        <ele>42.261387</ele>
        <time>2020-08-11T11:31:01.530Z</time>
      </trkpt>
      <trkpt lat="64.75715" lon="11.58037">
        <ele>43.646771</ele>
        <time>2020-08-11T11:31:42.504Z</time>
      </trkpt>
      <trkpt lat="64.75789" lon="11.58494">
        <ele>57.866624</ele>
        <time>2020-08-11T11:32:55.538Z</time>
      </trkpt>
      <trkpt lat="64.75849" lon="11.58919">
        <ele>65.742098</ele>
        <time>2020-08-11T11:34:18.505Z</time>
      </trkpt>
      <trkpt lat="64.75972" lon="11.59288">
        <ele>68.583202</ele>
        <time>2020-08-11T11:35:59.518Z</time>
      </trkpt>
      <trkpt lat="64.76103" lon="11.59686">
        <ele>76.215543</ele>
        <time>2020-08-11T11:37:19.500Z</time>
      </trkpt>
      <trkpt lat="64.76224" lon="11.60072">
        <ele>87.556864</ele>
        <time>2020-08-11T11:39:24.527Z</time>
      </trkpt>
      <trkpt lat="64.76367" lon="11.60489">
        <ele>76.871639</ele>
        <time>2020-08-11T11:40:07.513Z</time>
      </trkpt>
      <trkpt lat="64.76591" lon="11.60756">
        <ele>62.776897</ele>
        <time>2020-08-11T11:40:27.545Z</time>
      </trkpt>
      <trkpt lat="64.76719" lon="11.61172">
        <ele>59.39915</ele>
        <time>2020-08-11T11:41:15.509Z</time>
      </trkpt>
      <trkpt lat="64.76765" lon="11.61716">
        <ele>52.227396</ele>
        <time>2020-08-11T11:41:42.526Z</time>
      </trkpt>
      <trkpt lat="64.76818" lon="11.62284">
        <ele>43.423298</ele>
        <time>2020-08-11T11:42:24.524Z</time>
      </trkpt>
      <trkpt lat="64.77532" lon="11.61908">
        <ele>34.349501</ele>
        <time>2020-08-11T12:36:29.280Z</time>
      </trkpt>
      <trkpt lat="64.77699" lon="11.61612">
        <ele>45.138074</ele>
        <time>2020-08-11T12:37:09.345Z</time>
      </trkpt>
      <trkpt lat="64.77873" lon="11.61282">
        <ele>53.884552</ele>
        <time>2020-08-11T12:37:51.298Z</time>
      </trkpt>
      <trkpt lat="64.78042" lon="11.60971">
        <ele>62.186177</ele>
        <time>2020-08-11T12:38:31.276Z</time>
      </trkpt>
      <trkpt lat="64.7821" lon="11.6067">
        <ele>67.081852</ele>
        <time>2020-08-11T12:39:11.287Z</time>
      </trkpt>
      <trkpt lat="64.7838" lon="11.60381">
        <ele>58.715727</ele>
        <time>2020-08-11T12:39:51.308Z</time>
      </trkpt>
      <trkpt lat="64.78555" lon="11.60058">
        <ele>58.231296</ele>
        <time>2020-08-11T12:40:33.282Z</time>
      </trkpt>
      <trkpt lat="64.78721" lon="11.59758">
        <ele>60.835342</ele>
        <time>2020-08-11T12:41:13.283Z</time>
      </trkpt>
      <trkpt lat="64.78892" lon="11.59476">
        <ele>57.406974</ele>
        <time>2020-08-11T12:41:53.290Z</time>
      </trkpt>
      <trkpt lat="64.79058" lon="11.59176">
        <ele>50.223832</ele>
        <time>2020-08-11T12:42:33.297Z</time>
      </trkpt>
      <trkpt lat="64.79246" lon="11.58896">
        <ele>43.695505</ele>
        <time>2020-08-11T12:43:15.290Z</time>
      </trkpt>
      <trkpt lat="64.79416" lon="11.58603">
        <ele>43.836179</ele>
        <time>2020-08-11T12:43:55.281Z</time>
      </trkpt>
      <trkpt lat="64.79596" lon="11.58338">
        <ele>43.538618</ele>
        <time>2020-08-11T12:44:35.288Z</time>
      </trkpt>
      <trkpt lat="64.79797" lon="11.58088">
        <ele>40.016942</ele>
        <time>2020-08-11T12:45:17.312Z</time>
      </trkpt>
      <trkpt lat="64.79986" lon="11.57865">
        <ele>40.686768</ele>
        <time>2020-08-11T12:45:57.281Z</time>
      </trkpt>
      <trkpt lat="64.80187" lon="11.57692">
        <ele>40.786493</ele>
        <time>2020-08-11T12:46:37.281Z</time>
      </trkpt>
      <trkpt lat="64.80403" lon="11.57623">
        <ele>48.735689</ele>
        <time>2020-08-11T12:47:17.259Z</time>
      </trkpt>
      <trkpt lat="64.80623" lon="11.57765">
        <ele>47.909671</ele>
        <time>2020-08-11T12:47:59.292Z</time>
      </trkpt>
      <trkpt lat="64.80823" lon="11.5797">
        <ele>44.824776</ele>
        <time>2020-08-11T12:48:39.290Z</time>
      </trkpt>
      <trkpt lat="64.81019" lon="11.58189">
        <ele>42.179056</ele>
        <time>2020-08-11T12:49:19.289Z</time>
      </trkpt>
      <trkpt lat="64.81204" lon="11.58442">
        <ele>54.71719</ele>
        <time>2020-08-11T12:49:59.292Z</time>
      </trkpt>
      <trkpt lat="64.81402" lon="11.58787">
        <ele>60.692681</ele>
        <time>2020-08-11T12:50:41.306Z</time>
      </trkpt>
      <trkpt lat="64.81565" lon="11.59145">
        <ele>55.454607</ele>
        <time>2020-08-11T12:51:21.288Z</time>
      </trkpt>
      <trkpt lat="64.81734" lon="11.59518">
        <ele>64.79426</ele>
        <time>2020-08-11T12:52:01.270Z</time>
      </trkpt>
      <trkpt lat="64.81887" lon="11.59891">
        <ele>59.718316</ele>
        <time>2020-08-11T12:52:41.293Z</time>
      </trkpt>
      <trkpt lat="64.82043" lon="11.60289">
        <ele>53.473626</ele>
        <time>2020-08-11T12:53:23.297Z</time>
      </trkpt>
      <trkpt lat="64.82211" lon="11.60639">
        <ele>51.357337</ele>
        <time>2020-08-11T12:54:03.308Z</time>
      </trkpt>
      <trkpt lat="64.82364" lon="11.61034">
        <ele>45.918154</ele>
        <time>2020-08-11T12:54:43.275Z</time>
      </trkpt>
      <trkpt lat="64.82536" lon="11.6138">
        <ele>46.593456</ele>
        <time>2020-08-11T12:55:24.294Z</time>
      </trkpt>
      <trkpt lat="64.82731" lon="11.61402">
        <ele>38.304679</ele>
        <time>2020-08-11T12:57:15.284Z</time>
      </trkpt>
      <trkpt lat="64.82774" lon="11.60897">
        <ele>45.517809</ele>
        <time>2020-08-11T13:00:38.266Z</time>
      </trkpt>
      <trkpt lat="64.82722" lon="11.60434">
        <ele>43.750879</ele>
        <time>2020-08-11T13:01:31.263Z</time>
      </trkpt>
      <trkpt lat="64.82639" lon="11.59864">
        <ele>41.210315</ele>
        <time>2020-08-11T13:02:11.283Z</time>
      </trkpt>
      <trkpt lat="64.82581" lon="11.59385">
        <ele>40.468389</ele>
        <time>2020-08-11T13:02:53.296Z</time>
      </trkpt>
      <trkpt lat="64.82543" lon="11.5885">
        <ele>47.88651</ele>
        <time>2020-08-11T13:03:52.292Z</time>
      </trkpt>
      <trkpt lat="64.82513" lon="11.58353">
        <ele>43.268245</ele>
        <time>2020-08-11T13:04:33.268Z</time>
      </trkpt>
      <trkpt lat="64.82447" lon="11.5787">
        <ele>44.749975</ele>
        <time>2020-08-11T13:05:28.332Z</time>
      </trkpt>
      <trkpt lat="64.82383" lon="11.57384">
        <ele>45.083808</ele>
        <time>2020-08-11T13:06:10.298Z</time>
      </trkpt>
      <trkpt lat="64.8232" lon="11.56896">
        <ele>51.823881</ele>
        <time>2020-08-11T13:07:09.301Z</time>
      </trkpt>
      <trkpt lat="64.82266" lon="11.56454">
        <ele>55.660313</ele>
        <time>2020-08-11T13:08:34.283Z</time>
      </trkpt>
      <trkpt lat="64.82174" lon="11.56014">
        <ele>56.501916</ele>
        <time>2020-08-11T13:09:49.284Z</time>
      </trkpt>
      <trkpt lat="64.82143" lon="11.55544">
        <ele>65.204882</ele>
        <time>2020-08-11T13:11:34.335Z</time>
      </trkpt>
      <trkpt lat="64.82158" lon="11.55056">
        <ele>66.384688</ele>
        <time>2020-08-11T13:12:59.286Z</time>
      </trkpt>
      <trkpt lat="64.82089" lon="11.54559">
        <ele>64.81264</ele>
        <time>2020-08-11T13:13:50.270Z</time>
      </trkpt>
      <trkpt lat="64.81981" lon="11.54078">
        <ele>57.899052</ele>
        <time>2020-08-11T13:14:30.268Z</time>
      </trkpt>
      <trkpt lat="64.81898" lon="11.53503">
        <ele>50.104598</ele>
        <time>2020-08-11T13:15:12.282Z</time>
      </trkpt>
      <trkpt lat="64.81864" lon="11.53012">
        <ele>44.612799</ele>
        <time>2020-08-11T13:15:52.278Z</time>
      </trkpt>
      <trkpt lat="64.81897" lon="11.52484">
        <ele>48.927209</ele>
        <time>2020-08-11T13:16:55.302Z</time>
      </trkpt>
      <trkpt lat="64.81948" lon="11.52">
        <ele>50.868623</ele>
        <time>2020-08-11T13:18:13.301Z</time>
      </trkpt>
      <trkpt lat="64.81955" lon="11.51481">
        <ele>55.497685</ele>
        <time>2020-08-11T13:19:26.320Z</time>
      </trkpt>
      <trkpt lat="64.82027" lon="11.51051">
        <ele>65.259692</ele>
        <time>2020-08-11T13:20:54.262Z</time>
      </trkpt>
      <trkpt lat="64.82127" lon="11.50663">
        <ele>71.68216</ele>
        <time>2020-08-11T13:22:53.314Z</time>
      </trkpt>
      <trkpt lat="64.82227" lon="11.50244">
        <ele>74.138783</ele>
        <time>2020-08-11T13:24:14.280Z</time>
      </trkpt>
      <trkpt lat="64.82334" lon="11.49762">
        <ele>72.071004</ele>
        <time>2020-08-11T13:25:02.307Z</time>
      </trkpt>
      <trkpt lat="64.82517" lon="11.49873">
        <ele>73.383212</ele>
        <time>2020-08-11T13:25:43.269Z</time>
      </trkpt>
      <trkpt lat="64.82686" lon="11.50145">
        <ele>86.118913</ele>
        <time>2020-08-11T13:27:11.295Z</time>
      </trkpt>
      <trkpt lat="64.82855" lon="11.50419">
        <ele>90.939397</ele>
        <time>2020-08-11T13:28:39.273Z</time>
      </trkpt>
      <trkpt lat="64.8304" lon="11.50677">
        <ele>91.168851</ele>
        <time>2020-08-11T13:29:53.295Z</time>
      </trkpt>
      <trkpt lat="64.83233" lon="11.50835">
        <ele>99.497099</ele>
        <time>2020-08-11T13:31:29.296Z</time>
      </trkpt>
      <trkpt lat="64.8339" lon="11.51161">
        <ele>100.227596</ele>
        <time>2020-08-11T13:32:16.275Z</time>
      </trkpt>
      <trkpt lat="64.83594" lon="11.51361">
        <ele>104.543703</ele>
        <time>2020-08-11T13:33:18.278Z</time>
      </trkpt>
      <trkpt lat="64.83813" lon="11.51527">
        <ele>100.872681</ele>
        <time>2020-08-11T13:34:03.293Z</time>
      </trkpt>
      <trkpt lat="64.83995" lon="11.51827">
        <ele>98.193147</ele>
        <time>2020-08-11T13:34:40.299Z</time>
      </trkpt>
      <trkpt lat="64.84203" lon="11.51707">
        <ele>87.650877</ele>
        <time>2020-08-11T13:35:00.324Z</time>
      </trkpt>
      <trkpt lat="64.8447" lon="11.51598">
        <ele>64.644189</ele>
        <time>2020-08-11T13:35:20.287Z</time>
      </trkpt>
      <trkpt lat="64.84666" lon="11.51853">
        <ele>41.504063</ele>
        <time>2020-08-11T13:35:41.292Z</time>
      </trkpt>
      <trkpt lat="64.84705" lon="11.52421">
        <ele>35.313033</ele>
        <time>2020-08-11T13:36:12.291Z</time>
      </trkpt>
      <trkpt lat="64.84801" lon="11.5288">
        <ele>42.915033</ele>
        <time>2020-08-11T13:36:52.279Z</time>
      </trkpt>
      <trkpt lat="64.84916" lon="11.53261">
        <ele>46.683153</ele>
        <time>2020-08-11T13:37:32.275Z</time>
      </trkpt>
      <trkpt lat="64.85128" lon="11.534">
        <ele>43.047356</ele>
        <time>2020-08-11T13:38:14.284Z</time>
      </trkpt>
      <trkpt lat="64.85274" lon="11.53712">
        <ele>39.143573</ele>
        <time>2020-08-11T13:38:54.318Z</time>
      </trkpt>
      <trkpt lat="64.85434" lon="11.54019">
        <ele>38.838323</ele>
        <time>2020-08-11T13:39:34.283Z</time>
      </trkpt>
      <trkpt lat="64.85526" lon="11.54487">
        <ele>40.38877</ele>
        <time>2020-08-11T13:40:14.265Z</time>
      </trkpt>
      <trkpt lat="64.8569" lon="11.54813">
        <ele>43.655851</ele>
        <time>2020-08-11T13:40:57.297Z</time>
      </trkpt>
      <trkpt lat="64.85802" lon="11.55216">
        <ele>43.229425</ele>
        <time>2020-08-11T13:41:38.318Z</time>
      </trkpt>
      <trkpt lat="64.85923" lon="11.55623">
        <ele>41.215966</ele>
        <time>2020-08-11T13:42:23.302Z</time>
      </trkpt>
      <trkpt lat="64.86041" lon="11.56073">
        <ele>42.086317</ele>
        <time>2020-08-11T13:43:05.267Z</time>
      </trkpt>
      <trkpt lat="64.86195" lon="11.56491">
        <ele>43.256119</ele>
        <time>2020-08-11T13:43:47.285Z</time>
      </trkpt>
      <trkpt lat="64.86348" lon="11.56861">
        <ele>42.298098</ele>
        <time>2020-08-11T13:44:33.276Z</time>
      </trkpt>
      <trkpt lat="64.86516" lon="11.57078">
        <ele>45.327131</ele>
        <time>2020-08-11T13:45:25.284Z</time>
      </trkpt>
      <trkpt lat="64.86598" lon="11.57505">
        <ele>50.243159</ele>
        <time>2020-08-11T13:46:25.278Z</time>
      </trkpt>
      <trkpt lat="64.86674" lon="11.57973">
        <ele>59.52922</ele>
        <time>2020-08-11T13:47:45.283Z</time>
      </trkpt>
      <trkpt lat="64.8673" lon="11.58416">
        <ele>68.957581</ele>
        <time>2020-08-11T13:49:20.265Z</time>
      </trkpt>
      <trkpt lat="64.86765" lon="11.5887">
        <ele>73.111899</ele>
        <time>2020-08-11T13:50:50.298Z</time>
      </trkpt>
      <trkpt lat="64.86693" lon="11.59347">
        <ele>79.351079</ele>
        <time>2020-08-11T13:51:51.293Z</time>
      </trkpt>
      <trkpt lat="64.86561" lon="11.59698">
        <ele>93.865119</ele>
        <time>2020-08-11T13:53:23.280Z</time>
      </trkpt>
      <trkpt lat="64.86539" lon="11.6014">
        <ele>104.661288</ele>
        <time>2020-08-11T13:55:14.307Z</time>
      </trkpt>
      <trkpt lat="64.86485" lon="11.60428">
        <ele>105.634766</ele>
        <time>2020-08-11T14:12:28.282Z</time>
      </trkpt>
      <trkpt lat="64.86551" lon="11.60316">
        <ele>105.577572</ele>
        <time>2020-08-11T14:18:22.272Z</time>
      </trkpt>
      <trkpt lat="64.86529" lon="11.59754">
        <ele>93.750183</ele>
        <time>2020-08-11T14:19:14.303Z</time>
      </trkpt>
      <trkpt lat="64.86666" lon="11.59466">
        <ele>82.285744</ele>
        <time>2020-08-11T14:19:34.287Z</time>
      </trkpt>
      <trkpt lat="64.86758" lon="11.58844">
        <ele>61.904272</ele>
        <time>2020-08-11T14:20:11.284Z</time>
      </trkpt>
      <trkpt lat="64.86911" lon="11.58721">
        <ele>76.035077</ele>
        <time>2020-08-11T14:21:16.276Z</time>
      </trkpt>
      <trkpt lat="64.87101" lon="11.58883">
        <ele>83.335766</ele>
        <time>2020-08-11T14:22:31.278Z</time>
      </trkpt>
      <trkpt lat="64.87218" lon="11.58943">
        <ele>79.287232</ele>
        <time>2020-08-11T14:25:11.274Z</time>
      </trkpt>
    </trkseg>
  </trk>
</gpx>